sensor_id;sensor_type;location;lat;lon;timestamp;P1;durP1;ratioP1;P2;durP2;ratioP2
74415;SDS011;62850;42.428;25.618;2023-02-01T00:00:00;11.00;;;4.85;;
74415;SDS011;62850;42.428;25.618;2023-02-01T00:02:26;9.93;;;4.68;;
74415;SDS011;62850;42.428;25.618;2023-02-01T00:04:51;11.25;;;5.53;;
74415;SDS011;62850;42.428;25.618;2023-02-01T00:07:17;10.00;;;4.13;;
74415;SDS011;62850;42.428;25.618;2023-02-01T00:09:42;7.22;;;3.35;;
74415;SDS011;62850;42.428;25.618;2023-02-01T00:12:08;9.18;;;3.42;;
74415;SDS011;62850;42.428;25.618;2023-02-01T00:14:33;6.72;;;2.60;;
74415;SDS011;62850;42.428;25.618;2023-02-01T00:17:04;4.82;;;2.38;;
74415;SDS011;62850;42.428;25.618;2023-02-01T00:19:31;4.85;;;2.30;;
74415;SDS011;62850;42.428;25.618;2023-02-01T00:21:57;5.38;;;2.42;;
74415;SDS011;62850;42.428;25.618;2023-02-01T00:24:22;4.13;;;2.05;;
74415;SDS011;62850;42.428;25.618;2023-02-01T00:26:48;7.72;;;3.17;;
74415;SDS011;62850;42.428;25.618;2023-02-01T00:29:18;6.18;;;2.63;;
74415;SDS011;62850;42.428;25.618;2023-02-01T00:34:15;8.50;;;4.10;;
74415;SDS011;62850;42.428;25.618;2023-02-01T00:36:42;9.77;;;3.65;;
74415;SDS011;62850;42.428;25.618;2023-02-01T00:39:09;10.60;;;4.43;;
74415;SDS011;62850;42.428;25.618;2023-02-01T00:41:35;11.02;;;4.85;;
74415;SDS011;62850;42.428;25.618;2023-02-01T00:44:01;12.30;;;5.25;;
74415;SDS011;62850;42.428;25.618;2023-02-01T00:46:27;11.68;;;5.32;;
74415;SDS011;62850;42.428;25.618;2023-02-01T00:48:53;13.30;;;5.55;;
74415;SDS011;62850;42.428;25.618;2023-02-01T00:51:20;9.30;;;4.28;;
74415;SDS011;62850;42.428;25.618;2023-02-01T00:53:47;8.38;;;3.63;;
74415;SDS011;62850;42.428;25.618;2023-02-01T00:56:13;10.13;;;4.30;;
74415;SDS011;62850;42.428;25.618;2023-02-01T00:58:39;6.30;;;3.05;;
74415;SDS011;62850;42.428;25.618;2023-02-01T01:01:06;7.20;;;2.90;;
74415;SDS011;62850;42.428;25.618;2023-02-01T01:03:35;6.55;;;3.33;;
74415;SDS011;62850;42.428;25.618;2023-02-01T01:06:04;6.65;;;3.20;;
74415;SDS011;62850;42.428;25.618;2023-02-01T01:08:32;6.72;;;2.95;;
74415;SDS011;62850;42.428;25.618;2023-02-01T01:10:58;6.05;;;2.92;;
74415;SDS011;62850;42.428;25.618;2023-02-01T01:13:23;6.13;;;3.00;;
74415;SDS011;62850;42.428;25.618;2023-02-01T01:15:49;8.75;;;3.85;;
74415;SDS011;62850;42.428;25.618;2023-02-01T01:18:15;10.70;;;4.53;;
74415;SDS011;62850;42.428;25.618;2023-02-01T01:20:41;7.32;;;3.67;;
74415;SDS011;62850;42.428;25.618;2023-02-01T01:23:07;8.65;;;3.50;;
74415;SDS011;62850;42.428;25.618;2023-02-01T01:25:39;11.70;;;4.70;;
74415;SDS011;62850;42.428;25.618;2023-02-01T01:28:06;9.13;;;4.05;;
74415;SDS011;62850;42.428;25.618;2023-02-01T01:30:35;6.65;;;3.13;;
74415;SDS011;62850;42.428;25.618;2023-02-01T01:33:01;6.72;;;3.05;;
74415;SDS011;62850;42.428;25.618;2023-02-01T01:35:28;10.63;;;4.68;;
74415;SDS011;62850;42.428;25.618;2023-02-01T01:37:58;6.90;;;3.33;;
74415;SDS011;62850;42.428;25.618;2023-02-01T01:40:24;7.45;;;3.78;;
74415;SDS011;62850;42.428;25.618;2023-02-01T01:42:51;6.72;;;3.25;;
74415;SDS011;62850;42.428;25.618;2023-02-01T01:45:32;4.82;;;2.65;;
74415;SDS011;62850;42.428;25.618;2023-02-01T01:48:10;6.03;;;2.90;;
74415;SDS011;62850;42.428;25.618;2023-02-01T01:50:51;6.15;;;2.92;;
74415;SDS011;62850;42.428;25.618;2023-02-01T01:53:24;6.40;;;2.65;;
74415;SDS011;62850;42.428;25.618;2023-02-01T01:55:53;6.20;;;3.10;;
74415;SDS011;62850;42.428;25.618;2023-02-01T01:58:21;8.68;;;3.40;;
74415;SDS011;62850;42.428;25.618;2023-02-01T02:00:51;6.75;;;3.17;;
74415;SDS011;62850;42.428;25.618;2023-02-01T02:03:19;6.40;;;2.72;;
74415;SDS011;62850;42.428;25.618;2023-02-01T02:05:48;7.60;;;3.30;;
74415;SDS011;62850;42.428;25.618;2023-02-01T02:08:15;6.32;;;3.30;;
74415;SDS011;62850;42.428;25.618;2023-02-01T02:10:45;8.13;;;3.30;;
74415;SDS011;62850;42.428;25.618;2023-02-01T02:13:29;6.43;;;2.97;;
74415;SDS011;62850;42.428;25.618;2023-02-01T02:16:18;5.25;;;2.50;;
74415;SDS011;62850;42.428;25.618;2023-02-01T02:27:27;4.25;;;1.98;;
74415;SDS011;62850;42.428;25.618;2023-02-01T02:35:42;6.45;;;2.45;;
74415;SDS011;62850;42.428;25.618;2023-02-01T02:43:31;7.18;;;2.83;;
74415;SDS011;62850;42.428;25.618;2023-02-01T02:46:22;9.75;;;3.83;;
74415;SDS011;62850;42.428;25.618;2023-02-01T02:49:19;9.38;;;3.63;;
74415;SDS011;62850;42.428;25.618;2023-02-01T02:52:12;7.13;;;3.83;;
74415;SDS011;62850;42.428;25.618;2023-02-01T02:54:59;7.93;;;3.75;;
74415;SDS011;62850;42.428;25.618;2023-02-01T03:00:20;6.28;;;2.70;;
74415;SDS011;62850;42.428;25.618;2023-02-01T03:03:07;6.97;;;3.13;;
74415;SDS011;62850;42.428;25.618;2023-02-01T03:05:51;7.43;;;2.83;;
74415;SDS011;62850;42.428;25.618;2023-02-01T03:08:19;5.60;;;2.65;;
74415;SDS011;62850;42.428;25.618;2023-02-01T03:11:05;7.88;;;3.25;;
74415;SDS011;62850;42.428;25.618;2023-02-01T03:16:35;5.95;;;2.92;;
74415;SDS011;62850;42.428;25.618;2023-02-01T03:21:48;6.03;;;3.08;;
74415;SDS011;62850;42.428;25.618;2023-02-01T03:24:36;5.30;;;2.50;;
74415;SDS011;62850;42.428;25.618;2023-02-01T03:27:23;8.43;;;2.78;;
74415;SDS011;62850;42.428;25.618;2023-02-01T03:29:54;5.10;;;1.98;;
74415;SDS011;62850;42.428;25.618;2023-02-01T03:32:24;5.25;;;2.20;;
74415;SDS011;62850;42.428;25.618;2023-02-01T03:34:50;4.32;;;1.95;;
74415;SDS011;62850;42.428;25.618;2023-02-01T03:37:20;4.38;;;1.65;;
74415;SDS011;62850;42.428;25.618;2023-02-01T03:40:04;5.22;;;1.98;;
74415;SDS011;62850;42.428;25.618;2023-02-01T03:47:43;7.72;;;3.22;;
74415;SDS011;62850;42.428;25.618;2023-02-01T03:50:14;5.07;;;2.60;;
74415;SDS011;62850;42.428;25.618;2023-02-01T03:53:04;5.47;;;2.63;;
74415;SDS011;62850;42.428;25.618;2023-02-01T03:58:07;5.25;;;2.00;;
74415;SDS011;62850;42.428;25.618;2023-02-01T04:00:36;4.60;;;2.00;;
74415;SDS011;62850;42.428;25.618;2023-02-01T04:03:02;6.15;;;2.80;;
74415;SDS011;62850;42.428;25.618;2023-02-01T04:05:29;8.60;;;3.70;;
74415;SDS011;62850;42.428;25.618;2023-02-01T04:07:55;9.52;;;5.32;;
74415;SDS011;62850;42.428;25.618;2023-02-01T04:10:21;8.88;;;4.00;;
74415;SDS011;62850;42.428;25.618;2023-02-01T04:12:46;8.38;;;4.50;;
74415;SDS011;62850;42.428;25.618;2023-02-01T04:15:12;5.72;;;2.83;;
74415;SDS011;62850;42.428;25.618;2023-02-01T04:17:38;8.13;;;3.40;;
74415;SDS011;62850;42.428;25.618;2023-02-01T04:20:03;7.00;;;2.92;;
74415;SDS011;62850;42.428;25.618;2023-02-01T04:22:29;5.65;;;2.60;;
74415;SDS011;62850;42.428;25.618;2023-02-01T04:24:55;6.40;;;3.30;;
74415;SDS011;62850;42.428;25.618;2023-02-01T04:27:20;9.35;;;3.80;;
74415;SDS011;62850;42.428;25.618;2023-02-01T04:29:46;8.10;;;4.20;;
74415;SDS011;62850;42.428;25.618;2023-02-01T04:32:14;8.73;;;4.65;;
74415;SDS011;62850;42.428;25.618;2023-02-01T04:34:41;12.18;;;6.85;;
74415;SDS011;62850;42.428;25.618;2023-02-01T04:37:06;13.32;;;6.95;;
74415;SDS011;62850;42.428;25.618;2023-02-01T04:39:32;17.48;;;7.88;;
74415;SDS011;62850;42.428;25.618;2023-02-01T04:41:58;18.35;;;7.68;;
74415;SDS011;62850;42.428;25.618;2023-02-01T04:44:24;17.88;;;7.68;;
74415;SDS011;62850;42.428;25.618;2023-02-01T04:46:49;16.25;;;7.97;;
74415;SDS011;62850;42.428;25.618;2023-02-01T04:49:15;17.95;;;8.13;;
74415;SDS011;62850;42.428;25.618;2023-02-01T04:51:41;16.05;;;7.43;;
74415;SDS011;62850;42.428;25.618;2023-02-01T04:54:07;21.63;;;8.52;;
74415;SDS011;62850;42.428;25.618;2023-02-01T04:56:33;18.60;;;8.43;;
74415;SDS011;62850;42.428;25.618;2023-02-01T04:59:00;16.23;;;6.65;;
74415;SDS011;62850;42.428;25.618;2023-02-01T05:01:27;17.15;;;7.28;;
74415;SDS011;62850;42.428;25.618;2023-02-01T05:03:53;7.90;;;3.60;;
74415;SDS011;62850;42.428;25.618;2023-02-01T05:06:19;8.43;;;3.58;;
74415;SDS011;62850;42.428;25.618;2023-02-01T05:08:45;13.18;;;5.13;;
74415;SDS011;62850;42.428;25.618;2023-02-01T05:11:10;9.82;;;3.40;;
74415;SDS011;62850;42.428;25.618;2023-02-01T05:13:56;8.93;;;3.40;;
74415;SDS011;62850;42.428;25.618;2023-02-01T05:16:21;7.57;;;2.50;;
74415;SDS011;62850;42.428;25.618;2023-02-01T05:18:47;3.90;;;1.88;;
74415;SDS011;62850;42.428;25.618;2023-02-01T05:21:13;4.47;;;1.77;;
74415;SDS011;62850;42.428;25.618;2023-02-01T05:23:38;5.35;;;2.35;;
74415;SDS011;62850;42.428;25.618;2023-02-01T05:26:22;6.05;;;1.98;;
74415;SDS011;62850;42.428;25.618;2023-02-01T05:28:48;3.80;;;1.63;;
74415;SDS011;62850;42.428;25.618;2023-02-01T05:31:14;5.80;;;1.90;;
74415;SDS011;62850;42.428;25.618;2023-02-01T05:33:39;6.43;;;1.88;;
74415;SDS011;62850;42.428;25.618;2023-02-01T05:36:05;4.22;;;1.98;;
74415;SDS011;62850;42.428;25.618;2023-02-01T05:38:31;4.25;;;2.10;;
74415;SDS011;62850;42.428;25.618;2023-02-01T05:40:57;4.30;;;1.80;;
74415;SDS011;62850;42.428;25.618;2023-02-01T05:43:22;5.28;;;2.30;;
74415;SDS011;62850;42.428;25.618;2023-02-01T05:45:48;9.45;;;3.55;;
74415;SDS011;62850;42.428;25.618;2023-02-01T05:48:13;5.60;;;2.47;;
74415;SDS011;62850;42.428;25.618;2023-02-01T05:50:39;5.05;;;2.05;;
74415;SDS011;62850;42.428;25.618;2023-02-01T05:53:04;4.30;;;1.70;;
74415;SDS011;62850;42.428;25.618;2023-02-01T05:55:30;5.38;;;2.03;;
74415;SDS011;62850;42.428;25.618;2023-02-01T05:57:55;5.80;;;1.80;;
74415;SDS011;62850;42.428;25.618;2023-02-01T06:00:21;4.07;;;1.83;;
74415;SDS011;62850;42.428;25.618;2023-02-01T06:02:47;6.15;;;2.35;;
74415;SDS011;62850;42.428;25.618;2023-02-01T06:05:13;4.13;;;1.83;;
74415;SDS011;62850;42.428;25.618;2023-02-01T06:07:38;6.07;;;2.20;;
74415;SDS011;62850;42.428;25.618;2023-02-01T06:10:04;6.80;;;2.65;;
74415;SDS011;62850;42.428;25.618;2023-02-01T06:12:30;8.70;;;2.90;;
74415;SDS011;62850;42.428;25.618;2023-02-01T06:14:55;8.90;;;3.65;;
74415;SDS011;62850;42.428;25.618;2023-02-01T06:17:21;4.82;;;1.67;;
74415;SDS011;62850;42.428;25.618;2023-02-01T06:19:47;6.95;;;2.72;;
74415;SDS011;62850;42.428;25.618;2023-02-01T06:22:13;4.95;;;1.95;;
74415;SDS011;62850;42.428;25.618;2023-02-01T06:24:39;6.20;;;2.20;;
74415;SDS011;62850;42.428;25.618;2023-02-01T06:27:06;7.22;;;2.50;;
74415;SDS011;62850;42.428;25.618;2023-02-01T06:29:32;4.28;;;1.95;;
74415;SDS011;62850;42.428;25.618;2023-02-01T06:31:58;5.25;;;2.63;;
74415;SDS011;62850;42.428;25.618;2023-02-01T06:34:24;7.25;;;2.85;;
74415;SDS011;62850;42.428;25.618;2023-02-01T06:36:49;6.60;;;2.65;;
74415;SDS011;62850;42.428;25.618;2023-02-01T06:39:15;6.25;;;2.25;;
74415;SDS011;62850;42.428;25.618;2023-02-01T06:41:41;6.97;;;2.20;;
74415;SDS011;62850;42.428;25.618;2023-02-01T06:44:08;4.40;;;2.10;;
74415;SDS011;62850;42.428;25.618;2023-02-01T06:46:33;5.10;;;1.95;;
74415;SDS011;62850;42.428;25.618;2023-02-01T06:48:59;5.05;;;1.85;;
74415;SDS011;62850;42.428;25.618;2023-02-01T06:51:25;7.47;;;2.40;;
74415;SDS011;62850;42.428;25.618;2023-02-01T06:53:53;5.35;;;2.30;;
74415;SDS011;62850;42.428;25.618;2023-02-01T06:56:19;6.68;;;1.80;;
74415;SDS011;62850;42.428;25.618;2023-02-01T06:58:45;4.95;;;2.00;;
74415;SDS011;62850;42.428;25.618;2023-02-01T07:01:11;4.22;;;1.63;;
74415;SDS011;62850;42.428;25.618;2023-02-01T07:03:37;4.25;;;1.50;;
74415;SDS011;62850;42.428;25.618;2023-02-01T07:06:03;4.90;;;1.70;;
74415;SDS011;62850;42.428;25.618;2023-02-01T07:08:33;6.72;;;2.10;;
74415;SDS011;62850;42.428;25.618;2023-02-01T07:11:03;5.82;;;1.92;;
74415;SDS011;62850;42.428;25.618;2023-02-01T07:13:34;5.22;;;1.83;;
74415;SDS011;62850;42.428;25.618;2023-02-01T07:16:01;5.90;;;1.80;;
74415;SDS011;62850;42.428;25.618;2023-02-01T07:18:28;5.30;;;2.00;;
74415;SDS011;62850;42.428;25.618;2023-02-01T07:20:54;3.38;;;1.60;;
74415;SDS011;62850;42.428;25.618;2023-02-01T07:23:20;6.35;;;1.80;;
74415;SDS011;62850;42.428;25.618;2023-02-01T07:25:46;7.43;;;1.30;;
74415;SDS011;62850;42.428;25.618;2023-02-01T07:28:12;4.43;;;1.60;;
74415;SDS011;62850;42.428;25.618;2023-02-01T07:30:38;4.43;;;1.67;;
74415;SDS011;62850;42.428;25.618;2023-02-01T07:33:04;4.40;;;1.42;;
74415;SDS011;62850;42.428;25.618;2023-02-01T07:35:30;3.70;;;1.50;;
74415;SDS011;62850;42.428;25.618;2023-02-01T07:37:57;4.40;;;1.67;;
74415;SDS011;62850;42.428;25.618;2023-02-01T07:40:23;3.78;;;1.48;;
74415;SDS011;62850;42.428;25.618;2023-02-01T07:42:54;3.95;;;1.65;;
74415;SDS011;62850;42.428;25.618;2023-02-01T07:45:27;7.50;;;2.90;;
74415;SDS011;62850;42.428;25.618;2023-02-01T07:47:52;6.07;;;2.30;;
74415;SDS011;62850;42.428;25.618;2023-02-01T07:50:18;3.88;;;2.17;;
74415;SDS011;62850;42.428;25.618;2023-02-01T07:52:44;11.73;;;4.78;;
74415;SDS011;62850;42.428;25.618;2023-02-01T07:55:10;9.63;;;4.00;;
74415;SDS011;62850;42.428;25.618;2023-02-01T07:57:35;9.75;;;2.88;;
74415;SDS011;62850;42.428;25.618;2023-02-01T08:00:01;11.93;;;4.30;;
74415;SDS011;62850;42.428;25.618;2023-02-01T08:02:45;9.52;;;4.28;;
74415;SDS011;62850;42.428;25.618;2023-02-01T08:05:11;10.82;;;4.30;;
74415;SDS011;62850;42.428;25.618;2023-02-01T08:07:36;11.45;;;5.25;;
74415;SDS011;62850;42.428;25.618;2023-02-01T08:10:02;9.35;;;4.22;;
74415;SDS011;62850;42.428;25.618;2023-02-01T08:12:30;10.55;;;5.07;;
74415;SDS011;62850;42.428;25.618;2023-02-01T08:14:56;12.02;;;5.68;;
74415;SDS011;62850;42.428;25.618;2023-02-01T08:17:21;17.30;;;8.73;;
74415;SDS011;62850;42.428;25.618;2023-02-01T08:19:47;16.63;;;9.10;;
74415;SDS011;62850;42.428;25.618;2023-02-01T08:22:12;16.73;;;8.63;;
74415;SDS011;62850;42.428;25.618;2023-02-01T08:24:38;17.00;;;7.70;;
74415;SDS011;62850;42.428;25.618;2023-02-01T08:27:05;17.08;;;7.35;;
74415;SDS011;62850;42.428;25.618;2023-02-01T08:29:31;12.32;;;6.28;;
74415;SDS011;62850;42.428;25.618;2023-02-01T08:31:56;11.95;;;5.22;;
74415;SDS011;62850;42.428;25.618;2023-02-01T08:34:22;6.35;;;3.05;;
74415;SDS011;62850;42.428;25.618;2023-02-01T08:36:47;7.38;;;2.17;;
74415;SDS011;62850;42.428;25.618;2023-02-01T08:39:13;5.55;;;2.35;;
74415;SDS011;62850;42.428;25.618;2023-02-01T08:41:39;5.00;;;2.40;;
74415;SDS011;62850;42.428;25.618;2023-02-01T08:44:05;9.65;;;3.03;;
74415;SDS011;62850;42.428;25.618;2023-02-01T08:46:30;8.15;;;3.88;;
74415;SDS011;62850;42.428;25.618;2023-02-01T08:48:55;11.02;;;5.07;;
74415;SDS011;62850;42.428;25.618;2023-02-01T08:51:22;13.57;;;6.45;;
74415;SDS011;62850;42.428;25.618;2023-02-01T08:53:48;9.40;;;4.05;;
74415;SDS011;62850;42.428;25.618;2023-02-01T08:56:15;11.20;;;5.32;;
74415;SDS011;62850;42.428;25.618;2023-02-01T08:58:41;13.30;;;6.30;;
74415;SDS011;62850;42.428;25.618;2023-02-01T09:01:08;8.68;;;3.80;;
74415;SDS011;62850;42.428;25.618;2023-02-01T09:03:38;10.50;;;4.90;;
74415;SDS011;62850;42.428;25.618;2023-02-01T09:06:05;6.57;;;3.72;;
74415;SDS011;62850;42.428;25.618;2023-02-01T09:08:32;11.32;;;5.47;;
74415;SDS011;62850;42.428;25.618;2023-02-01T09:11:00;10.90;;;4.80;;
74415;SDS011;62850;42.428;25.618;2023-02-01T09:13:27;4.18;;;2.13;;
74415;SDS011;62850;42.428;25.618;2023-02-01T09:15:53;13.45;;;5.43;;
74415;SDS011;62850;42.428;25.618;2023-02-01T09:18:18;10.82;;;5.50;;
74415;SDS011;62850;42.428;25.618;2023-02-01T09:20:44;23.27;;;10.43;;
74415;SDS011;62850;42.428;25.618;2023-02-01T09:23:10;14.40;;;6.10;;
74415;SDS011;62850;42.428;25.618;2023-02-01T09:25:36;16.33;;;7.07;;
74415;SDS011;62850;42.428;25.618;2023-02-01T09:28:03;23.23;;;10.05;;
74415;SDS011;62850;42.428;25.618;2023-02-01T09:30:30;20.92;;;7.72;;
74415;SDS011;62850;42.428;25.618;2023-02-01T09:32:57;22.58;;;9.10;;
74415;SDS011;62850;42.428;25.618;2023-02-01T09:35:22;27.27;;;11.65;;
74415;SDS011;62850;42.428;25.618;2023-02-01T09:37:48;22.00;;;8.77;;
74415;SDS011;62850;42.428;25.618;2023-02-01T09:40:16;15.15;;;7.15;;
74415;SDS011;62850;42.428;25.618;2023-02-01T09:48:33;9.82;;;4.63;;
74415;SDS011;62850;42.428;25.618;2023-02-01T09:51:04;12.95;;;5.13;;
74415;SDS011;62850;42.428;25.618;2023-02-01T09:53:38;9.77;;;4.10;;
74415;SDS011;62850;42.428;25.618;2023-02-01T09:56:11;11.13;;;5.03;;
74415;SDS011;62850;42.428;25.618;2023-02-01T10:01:19;16.23;;;7.05;;
74415;SDS011;62850;42.428;25.618;2023-02-01T10:03:47;18.52;;;8.32;;
74415;SDS011;62850;42.428;25.618;2023-02-01T10:14:47;12.25;;;5.53;;
74415;SDS011;62850;42.428;25.618;2023-02-01T10:20:31;11.20;;;4.43;;
74415;SDS011;62850;42.428;25.618;2023-02-01T10:28:36;12.55;;;5.13;;
74415;SDS011;62850;42.428;25.618;2023-02-01T10:31:03;4.90;;;2.13;;
74415;SDS011;62850;42.428;25.618;2023-02-01T10:33:38;7.75;;;4.20;;
74415;SDS011;62850;42.428;25.618;2023-02-01T10:38:44;8.65;;;4.82;;
74415;SDS011;62850;42.428;25.618;2023-02-01T10:41:17;14.00;;;6.03;;
74415;SDS011;62850;42.428;25.618;2023-02-01T10:43:45;8.38;;;3.55;;
74415;SDS011;62850;42.428;25.618;2023-02-01T10:46:16;5.82;;;3.00;;
74415;SDS011;62850;42.428;25.618;2023-02-01T10:48:42;10.00;;;4.05;;
74415;SDS011;62850;42.428;25.618;2023-02-01T10:51:30;8.07;;;2.72;;
74415;SDS011;62850;42.428;25.618;2023-02-01T10:54:17;9.43;;;3.20;;
74415;SDS011;62850;42.428;25.618;2023-02-01T10:56:45;4.20;;;2.10;;
74415;SDS011;62850;42.428;25.618;2023-02-01T10:59:19;7.05;;;3.00;;
74415;SDS011;62850;42.428;25.618;2023-02-01T11:01:49;6.43;;;3.22;;
74415;SDS011;62850;42.428;25.618;2023-02-01T11:04:21;7.80;;;3.50;;
74415;SDS011;62850;42.428;25.618;2023-02-01T11:06:52;7.55;;;2.97;;
74415;SDS011;62850;42.428;25.618;2023-02-01T11:09:30;7.05;;;3.17;;
74415;SDS011;62850;42.428;25.618;2023-02-01T11:11:59;9.75;;;3.13;;
74415;SDS011;62850;42.428;25.618;2023-02-01T11:19:22;6.82;;;3.28;;
74415;SDS011;62850;42.428;25.618;2023-02-01T11:21:51;6.88;;;2.83;;
74415;SDS011;62850;42.428;25.618;2023-02-01T11:26:59;5.70;;;2.55;;
74415;SDS011;62850;42.428;25.618;2023-02-01T11:29:38;7.40;;;3.03;;
74415;SDS011;62850;42.428;25.618;2023-02-01T11:32:08;8.30;;;3.88;;
74415;SDS011;62850;42.428;25.618;2023-02-01T11:34:38;7.93;;;3.55;;
74415;SDS011;62850;42.428;25.618;2023-02-01T11:37:28;8.75;;;3.50;;
74415;SDS011;62850;42.428;25.618;2023-02-01T11:39:58;8.35;;;2.83;;
74415;SDS011;62850;42.428;25.618;2023-02-01T11:42:29;7.03;;;2.95;;
74415;SDS011;62850;42.428;25.618;2023-02-01T11:47:40;8.13;;;3.40;;
74415;SDS011;62850;42.428;25.618;2023-02-01T11:50:12;7.88;;;2.92;;
74415;SDS011;62850;42.428;25.618;2023-02-01T12:00:51;6.38;;;2.47;;
74415;SDS011;62850;42.428;25.618;2023-02-01T12:08:59;10.07;;;3.58;;
74415;SDS011;62850;42.428;25.618;2023-02-01T12:17:28;9.13;;;3.05;;
74415;SDS011;62850;42.428;25.618;2023-02-01T12:26:02;7.88;;;3.40;;
74415;SDS011;62850;42.428;25.618;2023-02-01T12:31:23;5.00;;;2.35;;
74415;SDS011;62850;42.428;25.618;2023-02-01T12:39:57;11.65;;;5.28;;
74415;SDS011;62850;42.428;25.618;2023-02-01T12:42:29;6.82;;;3.30;;
74415;SDS011;62850;42.428;25.618;2023-02-01T12:47:41;11.15;;;5.68;;
74415;SDS011;62850;42.428;25.618;2023-02-01T12:50:14;8.48;;;3.47;;
74415;SDS011;62850;42.428;25.618;2023-02-01T12:53:19;8.60;;;3.10;;
74415;SDS011;62850;42.428;25.618;2023-02-01T12:56:13;6.03;;;2.20;;
74415;SDS011;62850;42.428;25.618;2023-02-01T13:01:22;10.70;;;5.30;;
74415;SDS011;62850;42.428;25.618;2023-02-01T13:03:56;6.82;;;3.30;;
74415;SDS011;62850;42.428;25.618;2023-02-01T13:06:29;13.95;;;4.28;;
74415;SDS011;62850;42.428;25.618;2023-02-01T13:11:59;7.40;;;3.50;;
74415;SDS011;62850;42.428;25.618;2023-02-01T13:14:37;7.40;;;3.22;;
74415;SDS011;62850;42.428;25.618;2023-02-01T13:22:23;5.00;;;2.20;;
74415;SDS011;62850;42.428;25.618;2023-02-01T13:24:56;6.55;;;2.10;;
74415;SDS011;62850;42.428;25.618;2023-02-01T13:27:26;8.63;;;3.65;;
74415;SDS011;62850;42.428;25.618;2023-02-01T13:30:00;5.95;;;2.50;;
74415;SDS011;62850;42.428;25.618;2023-02-01T13:43:15;5.93;;;1.73;;
74415;SDS011;62850;42.428;25.618;2023-02-01T13:45:49;3.75;;;1.70;;
74415;SDS011;62850;42.428;25.618;2023-02-01T13:48:18;3.75;;;1.63;;
74415;SDS011;62850;42.428;25.618;2023-02-01T13:50:50;4.22;;;1.95;;
74415;SDS011;62850;42.428;25.618;2023-02-01T13:53:20;7.38;;;2.47;;
74415;SDS011;62850;42.428;25.618;2023-02-01T13:55:55;5.70;;;2.22;;
74415;SDS011;62850;42.428;25.618;2023-02-01T13:58:22;4.90;;;1.85;;
74415;SDS011;62850;42.428;25.618;2023-02-01T14:03:43;5.40;;;2.72;;
74415;SDS011;62850;42.428;25.618;2023-02-01T14:06:16;7.90;;;3.60;;
74415;SDS011;62850;42.428;25.618;2023-02-01T14:14:07;9.30;;;3.72;;
74415;SDS011;62850;42.428;25.618;2023-02-01T14:21:51;16.10;;;7.60;;
74415;SDS011;62850;42.428;25.618;2023-02-01T14:26:52;24.35;;;9.82;;
74415;SDS011;62850;42.428;25.618;2023-02-01T14:29:41;21.52;;;10.07;;
74415;SDS011;62850;42.428;25.618;2023-02-01T14:37:33;20.60;;;9.38;;
74415;SDS011;62850;42.428;25.618;2023-02-01T15:01:16;15.52;;;7.53;;
74415;SDS011;62850;42.428;25.618;2023-02-01T15:06:41;24.75;;;9.90;;
74415;SDS011;62850;42.428;25.618;2023-02-01T15:15:02;18.80;;;6.78;;
74415;SDS011;62850;42.428;25.618;2023-02-01T15:17:30;22.30;;;8.10;;
74415;SDS011;62850;42.428;25.618;2023-02-01T15:19:59;23.08;;;8.70;;
74415;SDS011;62850;42.428;25.618;2023-02-01T15:22:27;23.55;;;9.38;;
74415;SDS011;62850;42.428;25.618;2023-02-01T15:24:56;24.73;;;10.13;;
74415;SDS011;62850;42.428;25.618;2023-02-01T15:27:23;19.50;;;8.52;;
74415;SDS011;62850;42.428;25.618;2023-02-01T15:29:50;21.55;;;8.10;;
74415;SDS011;62850;42.428;25.618;2023-02-01T15:32:29;17.30;;;8.15;;
74415;SDS011;62850;42.428;25.618;2023-02-01T15:34:58;15.80;;;7.70;;
74415;SDS011;62850;42.428;25.618;2023-02-01T15:37:25;12.90;;;5.60;;
74415;SDS011;62850;42.428;25.618;2023-02-01T15:40:14;15.45;;;7.47;;
74415;SDS011;62850;42.428;25.618;2023-02-01T15:43:02;15.93;;;8.85;;
74415;SDS011;62850;42.428;25.618;2023-02-01T15:45:28;14.25;;;6.50;;
74415;SDS011;62850;42.428;25.618;2023-02-01T15:47:57;23.05;;;10.85;;
74415;SDS011;62850;42.428;25.618;2023-02-01T15:50:25;17.85;;;8.85;;
74415;SDS011;62850;42.428;25.618;2023-02-01T15:52:54;18.45;;;8.15;;
74415;SDS011;62850;42.428;25.618;2023-02-01T15:55:24;20.65;;;9.55;;
74415;SDS011;62850;42.428;25.618;2023-02-01T15:58:06;20.23;;;7.70;;
74415;SDS011;62850;42.428;25.618;2023-02-01T16:00:43;17.00;;;8.43;;
74415;SDS011;62850;42.428;25.618;2023-02-01T16:03:28;14.65;;;7.93;;
74415;SDS011;62850;42.428;25.618;2023-02-01T16:06:12;21.25;;;9.02;;
74415;SDS011;62850;42.428;25.618;2023-02-01T16:11:46;17.55;;;7.75;;
74415;SDS011;62850;42.428;25.618;2023-02-01T16:14:14;16.83;;;7.68;;
74415;SDS011;62850;42.428;25.618;2023-02-01T16:16:40;14.90;;;6.43;;
74415;SDS011;62850;42.428;25.618;2023-02-01T16:19:05;11.18;;;5.70;;
74415;SDS011;62850;42.428;25.618;2023-02-01T16:21:31;10.27;;;4.50;;
74415;SDS011;62850;42.428;25.618;2023-02-01T16:23:56;10.25;;;5.20;;
74415;SDS011;62850;42.428;25.618;2023-02-01T16:26:24;12.68;;;4.88;;
74415;SDS011;62850;42.428;25.618;2023-02-01T16:28:50;10.20;;;4.28;;
74415;SDS011;62850;42.428;25.618;2023-02-01T16:31:16;15.38;;;6.82;;
74415;SDS011;62850;42.428;25.618;2023-02-01T16:33:46;18.13;;;9.30;;
74415;SDS011;62850;42.428;25.618;2023-02-01T16:36:14;12.23;;;5.53;;
74415;SDS011;62850;42.428;25.618;2023-02-01T16:38:41;8.88;;;3.92;;
74415;SDS011;62850;42.428;25.618;2023-02-01T16:41:06;10.23;;;4.65;;
74415;SDS011;62850;42.428;25.618;2023-02-01T16:43:33;19.73;;;7.78;;
74415;SDS011;62850;42.428;25.618;2023-02-01T16:45:59;22.45;;;11.05;;
74415;SDS011;62850;42.428;25.618;2023-02-01T16:48:31;27.98;;;10.80;;
74415;SDS011;62850;42.428;25.618;2023-02-01T16:51:04;21.60;;;9.57;;
74415;SDS011;62850;42.428;25.618;2023-02-01T16:53:37;15.73;;;8.05;;
74415;SDS011;62850;42.428;25.618;2023-02-01T16:56:16;12.23;;;5.78;;
74415;SDS011;62850;42.428;25.618;2023-02-01T16:58:44;16.20;;;7.18;;
74415;SDS011;62850;42.428;25.618;2023-02-01T17:01:10;15.55;;;7.35;;
74415;SDS011;62850;42.428;25.618;2023-02-01T17:03:39;15.68;;;7.25;;
74415;SDS011;62850;42.428;25.618;2023-02-01T17:06:06;9.80;;;4.78;;
74415;SDS011;62850;42.428;25.618;2023-02-01T17:08:35;9.90;;;4.07;;
74415;SDS011;62850;42.428;25.618;2023-02-01T17:11:03;8.15;;;3.38;;
74415;SDS011;62850;42.428;25.618;2023-02-01T17:13:30;8.40;;;3.78;;
74415;SDS011;62850;42.428;25.618;2023-02-01T17:15:57;12.77;;;5.45;;
74415;SDS011;62850;42.428;25.618;2023-02-01T17:18:25;14.07;;;6.57;;
74415;SDS011;62850;42.428;25.618;2023-02-01T17:20:55;18.17;;;9.07;;
74415;SDS011;62850;42.428;25.618;2023-02-01T17:23:24;17.08;;;9.05;;
74415;SDS011;62850;42.428;25.618;2023-02-01T17:25:51;31.98;;;13.52;;
74415;SDS011;62850;42.428;25.618;2023-02-01T17:28:17;19.92;;;9.75;;
74415;SDS011;62850;42.428;25.618;2023-02-01T17:30:43;23.27;;;10.10;;
74415;SDS011;62850;42.428;25.618;2023-02-01T17:33:16;36.90;;;15.15;;
74415;SDS011;62850;42.428;25.618;2023-02-01T17:35:54;27.27;;;12.38;;
74415;SDS011;62850;42.428;25.618;2023-02-01T17:38:21;26.77;;;10.95;;
74415;SDS011;62850;42.428;25.618;2023-02-01T17:40:47;23.83;;;11.00;;
74415;SDS011;62850;42.428;25.618;2023-02-01T17:43:13;33.60;;;16.50;;
74415;SDS011;62850;42.428;25.618;2023-02-01T17:45:45;27.65;;;12.20;;
74415;SDS011;62850;42.428;25.618;2023-02-01T17:48:16;28.85;;;13.20;;
74415;SDS011;62850;42.428;25.618;2023-02-01T17:50:44;26.63;;;12.73;;